Flugplatz St. Michaelisdonn

Für EDXM sind keine METAR/TAF Berichte vorhanden.
Es werden die Flugwettermeldungen vom Flugplatz Nordholz Airport in 39 km Entfernung angezeigt.

Bericht für ETMN

vom 23.05. um 18:20 UTC

Wind 6 kt aus 310°

Sichtweite 10 km oder mehr

gering bewölkt in 5500 ft

aufgelockert bewölkt in 20000 ft

Temperatur 16.0°C

Taupunkt 6.0°C

Luftfeuchtigkeit 51%

Luftdruck 1015 hPa

ETMN 231820Z 31006KT 9999 FEW055 SCT200 16/06 Q1015 BLU+BLU+

Prognose für ETMN

vom 23.05. um 16:11 UTC

Zwischen 17:00 UTC und 02:00 UTC

Wind 8 kt aus 270°

Sichtweite 10 km oder mehr

keine signifikanten Wettererscheinungen

aufgelockert bewölkt in 5000 ft

aufgelockert bewölkt in 25000 ft

TAF ETMN 231611Z 2317/2402 27008KT 9999 NSW SCT050 SCT250 CANCEL 1850
Impressum